Sunday, October 21, 2018, 9:48 PM EDT
Back to Local

KEWR, Newark International Airport

Location: Elizabeth, NJ, United States Lat: 40.683
Local Time: 9:48 PM EDT ( 1:48 GMT) Lon: -74.167
Time Zone: US/Eastern Elev: 16 ft

Show me the last for .
Show Decoded

2018-10-21 20:51 METAR KEWR 220051Z 29004KT 10SM CLR 05/M04 A3015 RMK AO2 SLP210 T00501044 $ =
2018-10-21 19:51 METAR KEWR 212351Z 30006KT 10SM FEW050 06/M05 A3013 RMK AO2 SLP203 T00561050
                 10094 20056 51034 $ =
2018-10-21 18:51 METAR KEWR 212251Z 32011KT 10SM FEW050 06/M06 A3010 RMK AO2 SLP193 T00611056 $ =
2018-10-21 17:51 METAR KEWR 212151Z 31020G26KT 10SM FEW050 07/M06 A3007 RMK AO2 PK WND 29029/2100
                 SLP182 T00671061 $ =
2018-10-21 16:51 METAR KEWR 212051Z 29017G25KT 10SM FEW050 08/M05 A3003 RMK AO2 PK WND 28030/2034
                 SLP168 T00781050 53019 $ =
2018-10-21 15:51 METAR KEWR 211951Z 30019G30KT 10SM SCT050 08/M04 A3000 RMK AO2 PK WND 31030/1943
                 SLP158 T00831044 $ =
2018-10-21 14:51 METAR KEWR 211851Z 31018G31KT 10SM BKN055 08/M04 A2999 RMK AO2 PK WND 30031/1846
                 SLP156 T00781039 $ =
2018-10-21 13:51 METAR KEWR 211751Z 31018G28KT 10SM BKN048 08/M04 A2998 RMK AO2 PK WND 32028/1739
                 SLP150 T00781039 10089 20072 51007 $ =
2018-10-21 12:51 METAR KEWR 211651Z 33021G30KT 10SM BKN049 BKN100 BKN250 08/M03 A2996 RMK AO2 PK
                 WND 33036/1552 SLP144 T00831028 $ =
2018-10-21 11:51 METAR KEWR 211551Z 32023G32KT 10SM BKN048 BKN100 BKN250 08/M03 A2997 RMK AO2 PK
                 WND 32034/1455 SLP149 T00831028 $ =
2018-10-21 10:51 METAR KEWR 211451Z 32021G28KT 10SM BKN048 BKN100 BKN250 08/M03 A2995 RMK AO2 PK
                 WND 31036/1354 SLP143 T00781033 51039 $ =
2018-10-21 09:51 METAR KEWR 211351Z 32019G29KT 10SM BKN045 BKN100 BKN250 08/M03 A2993 RMK AO2 PK
                 WND 32036/1323 SLP134 T00781028 $ =
2018-10-21 08:51 METAR KEWR 211251Z 32017G36KT 10SM BKN045 BKN130 BKN220 07/M03 A2990 RMK AO2 PK
                 WND 32036/1228 SLP123 T00721028 $ =
2018-10-21 07:51 METAR KEWR 211151Z 32025G35KT 10SM FEW025 SCT040 BKN090 BKN220 08/00 A2984 RMK
                 AO2 PK WND 32035/1151 PRESRR SLP104 60000 70002 T00830000 10100 20083 53056 $ =
2018-10-21 06:51 METAR KEWR 211051Z 32015G21KT 10SM FEW045 BKN080 09/03 A2977 RMK AO2 SLP081
                 T00890033 $ =
2018-10-21 05:51 METAR KEWR 210951Z 32015KT 10SM FEW044 OVC060 09/03 A2972 RMK AO2 SLP063
                 T00890033 $ =
2018-10-21 04:51 METAR KEWR 210851Z 33014KT 10SM FEW022 FEW030 OVC044 09/05 A2968 RMK AO2
                 RAB18E33 SLP048 P0000 60000 T00890050 53026 $ =
2018-10-21 04:22 METAR KEWR 210822Z 33015G21KT 10SM -RA FEW022 BKN030 OVC040 09/06 A2966 RMK AO2
                 RAB18 P0000 T00890056 $ =
2018-10-21 03:51 METAR KEWR 210751Z 32014G22KT 10SM FEW016 OVC022 09/06 A2964 RMK AO2 SLP037
                 T00940056 $ =
2018-10-21 02:59 METAR KEWR 210659Z 28012KT 10SM BKN020 OVC130 09/07 A2963 RMK AO2 T00940072 $ =
2018-10-21 02:51 METAR KEWR 210651Z 28009KT 10SM SCT020 OVC130 09/07 A2963 RMK AO2 WSHFT 0601
                 SLP031 T00940072 $ =
2018-10-21 02:21 METAR KEWR 210621Z 26011KT 10SM FEW020 BKN100 OVC140 09/07 A2961 RMK AO2 WSHFT
                 0601 T00940072 $ =
2018-10-21 01:51 METAR KEWR 210551Z 00000KT 10SM FEW050 FEW080 OVC130 09/07 A2960 RMK AO2 RAE07
                 SLP022 P0000 60002 T00940072 10139 20094 58012 $ =
2018-10-21 00:51 METAR KEWR 210451Z 28013KT 10SM -RA SCT045 BKN070 OVC120 09/07 A2963 RMK AO2
                 RAE0356B32 SLP032 P0002 T00940067 401720094 $ =
2018-10-20 23:51 METAR KEWR 210351Z 30012KT 10SM -RA BKN045 BKN070 11/06 A2964 RMK AO2 RAB46
                 SLP036 P0000 T01110056 $ =
2018-10-20 22:51 METAR KEWR 210251Z 35004KT 10SM FEW050 SCT070 BKN120 BKN250 11/05 A2963 RMK AO2
                 SLP034 T01110050 53006 $ =
2018-10-20 21:51 METAR KEWR 210151Z 03006KT 10SM FEW050 SCT070 SCT250 12/06 A2962 RMK AO2 SLP029
                 T01170056 $ =

Support USWX by starting your Amazon purchase here.